createdAt,value
2018-11-22T00:00:23.356Z,5.13
2018-11-22T00:08:40.353Z,5.32
2018-11-22T00:17:52.457Z,5.19
2018-11-22T00:26:17.421Z,5.14
2018-11-22T00:28:46.173Z,5.25
2018-11-22T00:31:14.460Z,5.23
2018-11-22T00:33:42.679Z,5.24
2018-11-22T00:36:16.066Z,5.30
2018-11-22T00:38:46.540Z,5.20
2018-11-22T00:41:15.580Z,5.15
2018-11-22T00:43:51.918Z,5.34
2018-11-22T00:49:57.196Z,5.31
2018-11-22T00:52:26.983Z,5.28
2018-11-22T01:01:38.380Z,5.30
2018-11-22T01:04:11.688Z,5.10
2018-11-22T01:06:39.737Z,5.22
2018-11-22T01:09:10.780Z,5.27
2018-11-22T01:11:38.935Z,5.30
2018-11-22T01:14:07.033Z,5.22
2018-11-22T01:16:35.105Z,5.21
2018-11-22T01:19:03.284Z,5.30
2018-11-22T01:21:31.445Z,5.22
2018-11-22T01:23:59.559Z,5.36
2018-11-22T01:26:27.696Z,5.26
2018-11-22T01:28:55.872Z,5.34
2018-11-22T01:31:23.976Z,5.25
2018-11-22T01:33:52.060Z,5.17
2018-11-22T01:36:20.197Z,5.19
2018-11-22T01:38:48.328Z,5.16
2018-11-22T01:41:16.386Z,5.32
2018-11-22T01:43:44.559Z,5.24
2018-11-22T01:46:12.625Z,5.22
2018-11-22T01:48:40.762Z,5.34
2018-11-22T01:51:08.767Z,5.27
2018-11-22T01:53:37.070Z,5.32
2018-11-22T01:56:05.746Z,5.40
2018-11-22T01:58:33.877Z,5.24
2018-11-22T02:01:01.931Z,5.21
2018-11-22T02:03:30.009Z,5.35
2018-11-22T02:05:58.196Z,5.29
2018-11-22T02:08:26.256Z,5.27
2018-11-22T02:10:54.325Z,5.29
2018-11-22T02:13:22.399Z,5.36
2018-11-22T02:15:50.443Z,5.33
2018-11-22T02:18:18.578Z,5.22
2018-11-22T02:20:46.714Z,5.29
2018-11-22T02:23:14.857Z,5.34
2018-11-22T02:25:42.941Z,5.23
2018-11-22T02:28:10.995Z,5.27
2018-11-22T02:30:39.063Z,5.23
2018-11-22T02:33:07.128Z,5.22
2018-11-22T02:35:35.211Z,5.16
2018-11-22T02:38:03.309Z,5.31
2018-11-22T02:40:31.410Z,5.39
2018-11-22T02:42:59.485Z,5.44
2018-11-22T02:45:28.639Z,5.43
2018-11-22T02:47:56.771Z,5.55
2018-11-22T02:50:25.367Z,5.64
2018-11-22T02:52:54.258Z,5.49
2018-11-22T02:55:22.335Z,5.46
2018-11-22T02:57:50.424Z,5.29
2018-11-22T03:00:57.157Z,5.16
2018-11-22T03:03:25.166Z,5.08
2018-11-22T03:05:53.249Z,5.00
2018-11-22T03:08:21.310Z,4.93
2018-11-22T03:10:49.421Z,4.82
2018-11-22T03:13:18.877Z,4.80
2018-11-22T03:15:46.969Z,4.78
2018-11-22T03:18:15.039Z,4.76
2018-11-22T03:20:43.109Z,4.76
2018-11-22T03:23:11.176Z,4.66
2018-11-22T03:25:39.247Z,4.68
2018-11-22T03:28:07.345Z,4.76
2018-11-22T03:30:35.438Z,4.82
2018-11-22T03:33:03.510Z,4.87
2018-11-22T03:35:31.594Z,4.89
2018-11-22T03:37:59.675Z,4.82
2018-11-22T03:40:28.064Z,4.83
2018-11-22T03:42:56.133Z,4.94
2018-11-22T03:45:25.044Z,5.09
2018-11-22T03:47:53.120Z,5.45
2018-11-22T03:50:22.711Z,5.53
2018-11-22T03:52:52.005Z,5.41
2018-11-22T03:55:20.304Z,5.49
2018-11-22T03:57:48.764Z,5.57
2018-11-22T04:00:21.045Z,5.59
2018-11-22T04:02:49.516Z,5.68
2018-11-22T04:05:19.123Z,5.69
2018-11-22T04:07:47.230Z,5.72
2018-11-22T04:10:16.836Z,5.69
2018-11-22T04:12:44.896Z,5.74
2018-11-22T04:15:13.591Z,5.63
2018-11-22T04:17:41.679Z,5.62
2018-11-22T04:20:12.040Z,5.62
2018-11-22T04:22:40.213Z,5.55
2018-11-22T04:25:09.216Z,5.31
2018-11-22T04:27:37.401Z,5.01
2018-11-22T04:30:27.112Z,4.72
2018-11-22T04:32:55.225Z,4.58
2018-11-22T04:35:23.764Z,4.68
2018-11-22T04:37:51.875Z,4.86
2018-11-22T04:40:21.198Z,4.86
2018-11-22T04:42:49.988Z,4.82
2018-11-22T04:45:18.462Z,4.86
2018-11-22T04:47:47.361Z,4.94
2018-11-22T04:50:16.958Z,4.85
2018-11-22T04:52:45.051Z,4.75
2018-11-22T04:55:13.140Z,4.84
2018-11-22T04:57:41.251Z,4.83
2018-11-22T05:00:28.927Z,4.65
2018-11-22T05:02:57.019Z,4.72
2018-11-22T05:05:26.489Z,4.72
2018-11-22T05:07:54.643Z,4.64
2018-11-22T05:10:41.825Z,4.69
2018-11-22T05:13:09.882Z,4.65
2018-11-22T05:15:37.949Z,4.62
2018-11-22T05:18:06.058Z,4.45
2018-11-22T05:20:34.178Z,4.42
2018-11-22T05:23:02.263Z,4.49
2018-11-22T05:25:30.330Z,4.68
2018-11-22T05:28:17.859Z,4.75
2018-11-22T05:30:45.929Z,4.77
2018-11-22T05:33:14.028Z,4.69
2018-11-22T05:35:42.201Z,4.62
2018-11-22T05:38:10.306Z,4.52
2018-11-22T05:40:38.365Z,4.46
2018-11-22T05:43:06.469Z,4.65
2018-11-22T05:45:34.614Z,4.78
2018-11-22T05:48:02.695Z,4.62
2018-11-22T05:50:31.613Z,4.52
2018-11-22T05:53:01.339Z,4.55
2018-11-22T05:55:29.428Z,4.46
2018-11-22T05:57:57.595Z,4.33
2018-11-22T06:00:27.168Z,4.30
2018-11-22T06:02:55.872Z,4.33
2018-11-22T06:05:25.359Z,4.30
2018-11-22T06:07:54.089Z,4.24
2018-11-22T06:10:23.553Z,4.29
2018-11-22T06:12:52.591Z,4.36
2018-11-22T06:15:20.700Z,4.24
2018-11-22T06:17:49.522Z,4.23
2018-11-22T06:20:19.218Z,4.18
2018-11-22T06:22:47.606Z,4.16
2018-11-22T06:25:16.701Z,4.19
2018-11-22T06:27:45.075Z,4.08
2018-11-22T06:30:15.816Z,4.13
2018-11-22T06:32:44.396Z,4.18
2018-11-22T06:35:12.490Z,4.13
2018-11-22T06:37:40.799Z,4.18
2018-11-22T06:40:10.412Z,4.15
2018-11-22T06:42:38.926Z,4.12
2018-11-22T06:45:09.818Z,4.12
2018-11-22T06:47:37.927Z,4.32
2018-11-22T06:50:06.944Z,4.39
2018-11-22T06:52:35.048Z,4.46
2018-11-22T06:55:03.212Z,4.44
2018-11-22T06:57:31.389Z,4.47
2018-11-22T06:59:59.589Z,4.41
2018-11-22T07:02:27.725Z,4.34
2018-11-22T07:04:55.762Z,4.32
2018-11-22T07:07:23.839Z,4.34
2018-11-22T07:09:52.124Z,4.44
2018-11-22T07:12:20.205Z,4.34
2018-11-22T07:14:48.679Z,4.19
2018-11-22T07:17:16.756Z,4.25
2018-11-22T07:19:44.917Z,4.07
2018-11-22T07:22:18.857Z,4.15
2018-11-22T07:24:41.100Z,4.09
2018-11-22T07:27:09.239Z,4.04
2018-11-22T07:29:37.341Z,4.09
2018-11-22T07:32:05.884Z,4.08
2018-11-22T07:34:33.968Z,4.12
2018-11-22T07:37:02.037Z,4.14
2018-11-22T07:39:30.128Z,4.13
2018-11-22T07:41:58.191Z,4.12
2018-11-22T07:44:26.281Z,4.12
2018-11-22T07:46:56.716Z,4.25
2018-11-22T07:49:24.827Z,4.40
2018-11-22T07:51:53.038Z,4.37
2018-11-22T07:54:21.558Z,4.35
2018-11-22T07:56:49.670Z,4.32
2018-11-22T07:59:17.752Z,4.34
2018-11-22T08:01:45.827Z,4.47
2018-11-22T08:04:13.943Z,4.40
2018-11-22T08:06:42.014Z,4.50
2018-11-22T08:09:10.178Z,4.63
2018-11-22T08:14:31.558Z,4.74
2018-11-22T08:16:59.649Z,4.87
2018-11-22T08:19:27.714Z,4.79
2018-11-22T08:21:55.845Z,4.58
2018-11-22T08:24:23.919Z,4.56
2018-11-22T08:26:52.004Z,4.55
2018-11-22T08:29:20.081Z,4.66
2018-11-22T08:31:48.170Z,4.63
2018-11-22T08:34:16.266Z,4.55
2018-11-22T08:36:44.378Z,4.56
2018-11-22T08:39:12.432Z,4.65
2018-11-22T08:44:07.872Z,4.69
2018-11-22T08:46:35.986Z,4.67
2018-11-22T08:49:04.104Z,4.89
2018-11-22T08:51:32.172Z,4.79
2018-11-22T08:54:19.677Z,4.83
2018-11-22T08:56:48.157Z,4.80
2018-11-22T08:59:16.272Z,4.78
2018-11-22T09:02:03.789Z,4.92
2018-11-22T09:04:51.319Z,4.99
2018-11-22T09:07:19.468Z,5.34
2018-11-22T09:09:47.510Z,5.42
2018-11-22T09:12:15.598Z,5.16
2018-11-22T09:14:43.664Z,5.12
2018-11-22T09:17:11.753Z,5.01
2018-11-22T09:19:39.813Z,5.07
2018-11-22T09:22:07.927Z,5.39
2018-11-22T09:24:36.650Z,5.23
2018-11-22T09:27:04.776Z,5.33
2018-11-22T09:29:33.887Z,5.60
2018-11-22T09:32:00.929Z,5.86
2018-11-22T09:34:28.996Z,5.98
2018-11-22T09:36:57.188Z,5.90
2018-11-22T09:39:25.279Z,5.99
2018-11-22T09:41:53.338Z,5.78
2018-11-22T09:44:21.441Z,5.74
2018-11-22T09:46:49.533Z,5.72
2018-11-22T09:49:17.613Z,5.97
2018-11-22T09:51:45.695Z,6.07
2018-11-22T09:54:13.768Z,5.71
2018-11-22T09:56:41.849Z,5.83
2018-11-22T09:59:09.967Z,6.06
2018-11-22T10:01:38.012Z,5.75
2018-11-22T10:04:06.284Z,5.74
2018-11-22T10:06:34.365Z,5.85
2018-11-22T10:09:02.506Z,5.68
2018-11-22T10:11:30.531Z,5.91
2018-11-22T10:13:58.627Z,5.87
2018-11-22T10:16:26.714Z,6.02
2018-11-22T10:18:54.842Z,5.97
2018-11-22T10:21:22.907Z,5.99
2018-11-22T10:23:51.050Z,5.93
2018-11-22T10:26:19.117Z,5.72
2018-11-22T10:28:47.199Z,5.91
2018-11-22T10:31:15.224Z,5.73
2018-11-22T10:33:43.400Z,5.81
2018-11-22T10:36:11.492Z,5.78
2018-11-22T10:38:39.591Z,5.98
2018-11-22T10:41:07.759Z,6.11
2018-11-22T10:43:35.834Z,6.21
2018-11-22T10:46:03.896Z,6.01
2018-11-22T10:48:31.985Z,6.10
2018-11-22T10:51:00.133Z,6.16
2018-11-22T10:53:28.224Z,6.38
2018-11-22T10:55:56.280Z,6.46
2018-11-22T10:58:24.427Z,6.66
2018-11-22T11:01:11.594Z,6.72
2018-11-22T11:03:58.816Z,6.62
2018-11-22T11:06:46.024Z,6.58
2018-11-22T11:09:14.146Z,6.42
2018-11-22T11:11:42.233Z,6.08
2018-11-22T11:14:10.310Z,5.86
2018-11-22T11:16:38.406Z,6.00
2018-11-22T11:19:06.548Z,5.85
2018-11-22T11:21:34.624Z,5.84
2018-11-22T11:24:02.710Z,6.06
2018-11-22T11:26:30.798Z,6.13
2018-11-22T11:28:58.873Z,6.17
2018-11-22T11:31:26.943Z,6.47
2018-11-22T11:33:55.072Z,6.45
2018-11-22T11:36:23.140Z,6.46
2018-11-22T11:38:51.239Z,6.59
2018-11-22T11:41:19.441Z,6.73
2018-11-22T11:43:47.707Z,6.76
2018-11-22T11:49:12.007Z,6.91
2018-11-22T11:51:40.080Z,6.96
2018-11-22T11:54:08.165Z,7.01
2018-11-22T11:56:36.295Z,7.16
2018-11-22T11:59:04.620Z,7.33
2018-11-22T12:01:32.659Z,7.39
2018-11-22T12:04:00.764Z,7.37
2018-11-22T12:06:28.893Z,7.25
2018-11-22T12:08:56.974Z,7.21
2018-11-22T12:11:25.045Z,7.18
2018-11-22T12:13:53.418Z,7.20
2018-11-22T12:16:21.509Z,7.06
2018-11-22T12:18:49.612Z,7.08
2018-11-22T12:21:17.728Z,7.00
2018-11-22T12:23:45.811Z,6.72
2018-11-22T12:26:13.886Z,6.61
2018-11-22T12:28:41.992Z,6.90
2018-11-22T12:31:10.130Z,7.02
2018-11-22T12:33:38.148Z,6.76
2018-11-22T12:36:25.621Z,6.61
2018-11-22T12:38:53.709Z,6.68
2018-11-22T12:41:21.773Z,6.86
2018-11-22T12:43:49.868Z,7.05
2018-11-22T12:46:17.947Z,7.23
2018-11-22T12:48:46.023Z,7.31
2018-11-22T12:51:14.149Z,7.26
2018-11-22T12:53:42.240Z,6.85
2018-11-22T12:56:10.307Z,7.06
2018-11-22T12:58:38.393Z,7.24
2018-11-22T13:01:06.449Z,7.46
2018-11-22T13:03:34.551Z,7.57
2018-11-22T13:06:02.645Z,7.55
2018-11-22T13:08:30.765Z,7.45
2018-11-22T13:10:58.828Z,7.41
2018-11-22T13:13:26.903Z,7.44
2018-11-22T13:15:54.968Z,7.55
2018-11-22T13:18:23.049Z,7.49
2018-11-22T13:20:51.124Z,7.02
2018-11-22T13:23:19.195Z,7.22
2018-11-22T13:25:47.303Z,7.34
2018-11-22T13:28:15.396Z,7.34
2018-11-22T13:30:43.478Z,7.40
2018-11-22T13:33:11.615Z,7.44
2018-11-22T13:35:39.737Z,7.48
2018-11-22T13:38:07.845Z,7.49
2018-11-22T13:40:35.978Z,7.46
2018-11-22T13:43:04.351Z,7.37
2018-11-22T13:45:32.463Z,7.37
2018-11-22T13:48:00.549Z,7.20
2018-11-22T13:50:30.176Z,6.87
2018-11-22T13:53:20.461Z,7.07
2018-11-22T13:55:45.484Z,6.96
2018-11-22T13:58:13.571Z,6.75
2018-11-22T14:00:41.669Z,6.70
2018-11-22T14:03:09.773Z,6.35
2018-11-22T14:05:37.867Z,6.56
2018-11-22T14:08:05.969Z,6.79
2018-11-22T14:10:34.061Z,6.86
2018-11-22T14:13:02.210Z,6.77
2018-11-22T14:15:31.289Z,6.50
2018-11-22T14:18:18.480Z,6.40
2018-11-22T14:20:46.562Z,6.34
2018-11-22T14:23:14.657Z,5.97
2018-11-22T14:25:49.021Z,6.23
2018-11-22T14:28:11.015Z,6.44
2018-11-22T14:30:39.026Z,6.27
2018-11-22T14:33:07.103Z,6.45
2018-11-22T14:35:35.215Z,6.58
2018-11-22T14:38:03.357Z,6.58
2018-11-22T14:40:32.352Z,6.53
2018-11-22T14:43:00.628Z,6.62
2018-11-22T14:45:29.519Z,6.63
2018-11-22T14:47:58.634Z,6.61
2018-11-22T14:50:47.459Z,6.51
2018-11-22T14:53:35.770Z,6.33
2018-11-22T14:56:03.865Z,6.30
2018-11-22T14:58:31.915Z,6.28
2018-11-22T15:01:00.053Z,6.34
2018-11-22T15:03:28.105Z,6.32
2018-11-22T15:05:56.272Z,6.23
2018-11-22T15:08:24.332Z,6.20
2018-11-22T15:10:52.538Z,6.04
2018-11-22T15:13:20.649Z,6.08
2018-11-22T15:15:48.736Z,5.87
2018-11-22T15:18:16.940Z,5.85
2018-11-22T15:20:45.079Z,5.87
2018-11-22T15:23:13.143Z,5.82
2018-11-22T15:25:41.206Z,5.71
2018-11-22T15:28:09.281Z,5.83
2018-11-22T15:30:37.480Z,5.72
2018-11-22T15:33:05.813Z,5.70
2018-11-22T15:35:33.917Z,5.42
2018-11-22T15:38:02.051Z,5.44
2018-11-22T15:40:30.128Z,5.63
2018-11-22T15:42:59.837Z,5.60
2018-11-22T15:45:34.782Z,5.60
2018-11-22T15:47:56.735Z,5.58
2018-11-22T15:50:26.094Z,5.43
2018-11-22T15:52:54.295Z,5.46
2018-11-22T15:55:22.975Z,5.40
2018-11-22T15:57:52.492Z,5.21
2018-11-22T16:00:42.976Z,5.12
2018-11-22T16:03:11.099Z,5.20
2018-11-22T16:05:39.199Z,5.16
2018-11-22T16:08:07.303Z,5.15
2018-11-22T16:10:36.354Z,5.07
2018-11-22T16:13:23.892Z,5.03
2018-11-22T16:15:55.073Z,4.97
2018-11-22T16:18:23.423Z,4.97
2018-11-22T16:20:51.488Z,4.95
2018-11-22T16:23:19.587Z,4.72
2018-11-22T16:25:47.680Z,4.96
2018-11-22T16:28:15.794Z,4.96
2018-11-22T16:30:44.302Z,4.73
2018-11-22T16:33:12.421Z,4.79
2018-11-22T16:35:40.577Z,4.55
2018-11-22T16:38:08.710Z,4.57
2018-11-22T16:40:36.760Z,4.56
2018-11-22T16:43:04.975Z,4.52
2018-11-22T16:45:34.440Z,4.52
2018-11-22T16:48:21.949Z,4.31
2018-11-22T16:50:50.020Z,4.09
2018-11-22T16:53:18.091Z,4.01
2018-11-22T16:55:46.212Z,4.05
2018-11-22T16:58:14.314Z,3.80
2018-11-22T17:00:42.391Z,3.66
2018-11-22T17:03:12.281Z,3.76
2018-11-22T17:05:40.955Z,3.63
2018-11-22T17:08:09.563Z,3.59
2018-11-22T17:10:38.194Z,3.82
2018-11-22T17:13:06.458Z,3.78
2018-11-22T17:15:35.876Z,3.87
2018-11-22T17:18:04.614Z,3.85
2018-11-22T17:20:33.142Z,3.44
2018-11-22T17:23:01.742Z,3.02
2018-11-22T17:25:31.133Z,2.81
2018-11-22T17:28:00.652Z,2.63
2018-11-22T17:30:47.839Z,2.67
2018-11-22T17:33:16.000Z,2.67
2018-11-22T17:35:44.085Z,2.50
2018-11-22T17:38:12.965Z,2.40
2018-11-22T17:40:42.599Z,2.33
2018-11-22T17:43:10.736Z,2.18
2018-11-22T17:45:40.199Z,2.16
2018-11-22T17:48:08.575Z,2.13
2018-11-22T17:50:38.506Z,2.13
2018-11-22T17:53:07.312Z,2.09
2018-11-22T17:55:35.649Z,1.98
2018-11-22T17:58:03.764Z,1.90
2018-11-22T18:00:51.003Z,1.88
2018-11-22T18:03:19.431Z,1.65
2018-11-22T18:05:47.837Z,1.50
2018-11-22T18:08:15.935Z,1.47
2018-11-22T18:10:44.338Z,1.44
2018-11-22T18:13:12.446Z,1.66
2018-11-22T18:15:59.835Z,1.83
2018-11-22T18:18:28.997Z,1.71
2018-11-22T18:20:57.625Z,1.95
2018-11-22T18:23:27.260Z,1.88
2018-11-22T18:26:20.833Z,1.67
2018-11-22T18:28:49.101Z,2.04
2018-11-22T18:31:20.447Z,2.32
2018-11-22T18:40:11.600Z,2.73
2018-11-22T18:42:45.470Z,2.73
2018-11-22T18:45:39.581Z,2.74
2018-11-22T18:48:09.456Z,2.57
2018-11-22T18:50:40.938Z,2.14
2018-11-22T18:53:12.499Z,1.89
2018-11-22T18:59:24.510Z,1.56
2018-11-22T19:01:55.455Z,1.66
2018-11-22T19:04:22.387Z,1.92
2018-11-22T19:06:51.318Z,1.83
2018-11-22T19:09:19.634Z,1.63
2018-11-22T19:12:07.791Z,1.72
2018-11-22T19:14:38.275Z,1.64
2018-11-22T19:17:08.411Z,1.36
2018-11-22T19:19:40.547Z,1.21
2018-11-22T19:22:09.957Z,1.16
2018-11-22T19:24:38.508Z,1.50
2018-11-22T19:27:14.643Z,1.66
2018-11-22T19:29:44.076Z,1.97
2018-11-22T19:32:20.538Z,2.34
2018-11-22T19:34:49.979Z,1.94
2018-11-22T19:37:20.405Z,1.82
2018-11-22T19:40:08.281Z,1.64
2018-11-22T19:42:39.557Z,1.58
2018-11-22T19:45:13.606Z,1.23
2018-11-22T19:47:42.778Z,1.17
2018-11-22T19:56:43.162Z,1.26
2018-11-22T20:05:11.725Z,1.81
2018-11-22T20:07:44.408Z,2.19
2018-11-22T20:10:33.727Z,2.39
2018-11-22T20:16:26.889Z,2.60
2018-11-22T20:18:56.415Z,2.70
2018-11-22T20:21:25.309Z,2.73
2018-11-22T20:23:54.952Z,2.74
2018-11-22T20:26:23.665Z,2.92
2018-11-22T20:29:16.128Z,3.00
2018-11-22T20:31:44.418Z,3.00
2018-11-22T20:34:14.733Z,3.00
2018-11-22T20:40:16.092Z,3.20
2018-11-22T20:42:46.326Z,2.93
2018-11-22T20:49:09.625Z,3.04
2018-11-22T20:54:45.071Z,2.94
2018-11-22T20:57:15.776Z,2.98
2018-11-22T20:59:46.862Z,3.00
2018-11-22T21:14:08.101Z,2.87
2018-11-22T21:16:41.956Z,2.85
2018-11-22T21:19:13.311Z,2.88
2018-11-22T21:21:50.161Z,2.99
2018-11-22T21:24:21.386Z,2.93
2018-11-22T21:27:08.640Z,2.86
2018-11-22T21:32:49.455Z,2.76
2018-11-22T21:35:20.399Z,2.72
2018-11-22T21:37:50.064Z,2.82
2018-11-22T21:40:32.449Z,2.80
2018-11-22T21:43:00.890Z,2.88
2018-11-22T21:45:31.852Z,2.79
2018-11-22T21:48:00.653Z,2.74
2018-11-22T21:50:29.687Z,2.74
2018-11-22T21:53:17.882Z,2.70
2018-11-22T21:58:43.973Z,2.74
2018-11-22T22:02:10.177Z,2.61
2018-11-22T22:11:21.105Z,2.67
2018-11-22T22:22:27.017Z,2.75
2018-11-22T22:24:59.437Z,2.75
2018-11-22T22:27:28.619Z,2.67
2018-11-22T22:29:59.729Z,2.63
2018-11-22T22:33:11.167Z,2.67
2018-11-22T22:35:40.343Z,2.75
2018-11-22T22:38:37.653Z,2.77
2018-11-22T22:41:10.760Z,2.79
2018-11-22T22:43:39.311Z,2.85
2018-11-22T22:46:10.562Z,2.78
2018-11-22T22:48:39.027Z,2.79
2018-11-22T22:51:07.616Z,2.81
2018-11-22T22:53:41.837Z,2.73
2018-11-22T22:56:19.538Z,2.81
2018-11-22T22:58:48.475Z,2.82
2018-11-22T23:01:16.723Z,2.88
2018-11-22T23:03:45.319Z,2.91
2018-11-22T23:06:19.707Z,2.99
2018-11-22T23:08:48.815Z,3.01
2018-11-22T23:16:44.878Z,2.91
2018-11-22T23:19:13.059Z,2.83
2018-11-22T23:21:44.156Z,2.87
2018-11-22T23:24:16.217Z,2.89
2018-11-22T23:26:44.537Z,2.90
2018-11-22T23:29:13.120Z,2.87
2018-11-22T23:31:41.661Z,2.84
2018-11-22T23:34:32.234Z,2.96
2018-11-22T23:37:00.535Z,3.05
2018-11-22T23:39:28.938Z,3.15
2018-11-22T23:42:00.188Z,3.18
2018-11-22T23:44:28.396Z,3.09
2018-11-22T23:46:59.772Z,3.10
2018-11-22T23:49:28.021Z,2.89
2018-11-22T23:51:56.679Z,2.92
2018-11-22T23:54:28.446Z,2.90
2018-11-22T23:56:56.998Z,2.89
2018-11-22T23:59:44.732Z,2.91
